Time;durP1;ratioP1;P1;durP2;ratioP2;P2;SDS_P1;SDS_P2;PMS_P1;PMS_P2;Temp;Humidity;BMP_temperature;BMP_pressure;BME280_temperature;BME280_humidity;BME280_pressure;Samples;Min_cycle;Max_cycle;Signal;HPM_P1;HPM_P2
2022/11/11 00:02:08;;;;;;;18.60;4.77;;;13.40;99.90;;;;;;5032953;28;20290;-81
2022/11/11 00:04:35;;;;;;;10.03;4.57;;;13.40;99.90;;;;;;5014444;28;20202;-80
2022/11/11 00:07:03;;;;;;;13.13;4.13;;;13.40;99.90;;;;;;5012984;28;20203;-82
2022/11/11 00:09:30;;;;;;;10.33;4.57;;;13.40;99.90;;;;;;5013406;28;20522;-80
2022/11/11 00:11:57;;;;;;;14.10;4.47;;;13.40;99.90;;;;;;5012945;28;20239;-81
2022/11/11 00:14:24;;;;;;;11.07;4.50;;;13.40;99.90;;;;;;5012402;28;20222;-81
2022/11/11 00:25:08;;;;;;;11.30;4.23;;;13.40;99.90;;;;;;5012960;28;20201;-81
2022/11/11 00:27:35;;;;;;;12.23;4.87;;;13.40;99.90;;;;;;5011851;28;20286;-82
2022/11/11 00:30:02;;;;;;;14.17;4.20;;;13.40;99.90;;;;;;5013297;28;20237;-82
2022/11/11 00:32:32;;;;;;;13.93;4.07;;;13.40;99.90;;;;;;5012859;28;20202;-80
2022/11/11 00:37:48;;;;;;;13.87;4.07;;;13.40;99.90;;;;;;5032511;28;20638;-83
2022/11/11 00:40:15;;;;;;;8.77;3.80;;;13.40;99.90;;;;;;5033334;28;20202;-81
2022/11/11 00:42:42;;;;;;;13.57;4.40;;;13.40;99.90;;;;;;5031275;28;20502;-81
2022/11/11 00:45:11;;;;;;;10.07;3.97;;;13.40;99.90;;;;;;5018836;28;20202;-81
2022/11/11 00:53:13;;;;;;;17.63;4.60;;;13.50;99.90;;;;;;5012967;28;20658;-82
2022/11/11 00:55:40;;;;;;;15.90;4.17;;;13.40;99.90;;;;;;5012926;28;20226;-81
2022/11/11 00:58:07;;;;;;;12.30;4.63;;;13.40;99.90;;;;;;5012821;28;20227;-81
2022/11/11 01:00:34;;;;;;;14.30;5.27;;;13.40;99.90;;;;;;5028479;28;20203;-81
2022/11/11 01:03:01;;;;;;;17.13;5.10;;;13.40;99.90;;;;;;5031976;28;20203;-81
2022/11/11 01:05:28;;;;;;;12.80;4.80;;;13.40;99.90;;;;;;5032540;28;20202;-82
2022/11/11 01:07:55;;;;;;;14.67;4.70;;;13.40;99.90;;;;;;5014904;28;20203;-79
2022/11/11 01:10:40;;;;;;;14.53;5.87;;;13.40;99.90;;;;;;5012106;28;20206;-80
2022/11/11 01:13:14;;;;;;;11.93;5.70;;;13.30;99.90;;;;;;5020541;28;20238;-78
2022/11/11 01:15:42;;;;;;;11.80;5.70;;;13.30;99.90;;;;;;5031443;28;20615;-81
2022/11/11 01:18:10;;;;;;;12.63;5.37;;;13.30;99.90;;;;;;5024596;28;20622;-80
2022/11/11 01:20:38;;;;;;;16.20;6.87;;;13.30;99.90;;;;;;5012422;28;20686;-84
2022/11/11 01:23:04;;;;;;;13.57;5.70;;;13.30;99.90;;;;;;5012507;28;20210;-80
2022/11/11 01:25:35;;;;;;;17.87;6.03;;;13.30;99.90;;;;;;5012895;28;20214;-81
2022/11/11 01:28:02;;;;;;;14.67;6.07;;;13.30;99.90;;;;;;5012530;28;20265;-81
2022/11/11 01:30:29;;;;;;;13.27;6.73;;;13.30;99.90;;;;;;5011764;28;20199;-82
2022/11/11 01:32:55;;;;;;;11.10;6.50;;;13.30;99.90;;;;;;5013436;28;20211;-81
2022/11/11 01:35:22;;;;;;;13.57;7.17;;;13.20;99.90;;;;;;5031820;28;20627;-82
2022/11/11 01:37:49;;;;;;;10.63;6.47;;;13.20;99.90;;;;;;5031318;28;20207;-82
2022/11/11 01:40:17;;;;;;;17.23;7.00;;;13.20;99.90;;;;;;5022670;28;20218;-81
2022/11/11 01:42:49;;;;;;;12.93;6.17;;;13.20;99.90;;;;;;5035635;28;20281;-81
2022/11/11 01:45:47;;;;;;;15.73;6.70;;;13.10;99.90;;;;;;5031495;28;20325;-81
2022/11/11 01:51:12;;;;;;;17.53;7.33;;;13.10;99.90;;;;;;5023341;28;20279;-80
2022/11/11 01:53:38;;;;;;;14.53;6.23;;;13.10;99.90;;;;;;5034645;28;20233;-81
2022/11/11 01:56:08;;;;;;;13.57;5.67;;;13.10;99.90;;;;;;5034115;28;20198;-80
2022/11/11 01:58:37;;;;;;;10.80;5.90;;;13.10;99.90;;;;;;5018797;28;20213;-80
2022/11/11 02:01:05;;;;;;;11.80;5.63;;;13.00;99.90;;;;;;5015406;28;20299;-81
2022/11/11 02:03:38;;;;;;;12.20;5.67;;;13.00;99.90;;;;;;5015234;28;20221;-81
2022/11/11 02:06:05;;;;;;;15.93;6.40;;;13.00;99.90;;;;;;5034269;28;20302;-81
2022/11/11 02:08:35;;;;;;;11.77;6.57;;;13.00;99.90;;;;;;5035123;28;20205;-81
2022/11/11 02:11:05;;;;;;;13.67;6.30;;;13.00;99.90;;;;;;5035775;28;20206;-80
2022/11/11 02:16:23;;;;;;;13.97;7.07;;;13.00;99.90;;;;;;5034821;28;20190;-81
2022/11/11 02:18:50;;;;;;;16.67;7.97;;;13.00;99.90;;;;;;5015693;28;20223;-82
2022/11/11 02:21:28;;;;;;;16.37;7.90;;;13.00;99.90;;;;;;5015008;28;20209;-81
2022/11/11 02:24:03;;;;;;;14.17;9.03;;;13.00;99.90;;;;;;5015515;28;20199;-80
2022/11/11 02:26:32;;;;;;;15.80;8.33;;;13.00;99.90;;;;;;5023692;28;20209;-78
2022/11/11 02:29:01;;;;;;;13.03;8.30;;;13.00;99.90;;;;;;5034849;28;20194;-82
2022/11/11 02:31:29;;;;;;;15.87;9.13;;;13.00;99.90;;;;;;5035039;28;20253;-83
2022/11/11 02:33:56;;;;;;;17.50;9.17;;;13.00;99.90;;;;;;5032859;28;20230;-82
2022/11/11 02:36:23;;;;;;;17.40;9.20;;;13.00;99.90;;;;;;5034279;28;20199;-80
2022/11/11 02:38:51;;;;;;;18.93;9.30;;;12.90;99.90;;;;;;5034517;28;20207;-81
2022/11/11 02:44:04;;;;;;;20.00;11.13;;;12.90;99.90;;;;;;5029882;28;20257;-80
2022/11/11 02:46:31;;;;;;;20.10;11.13;;;12.80;99.90;;;;;;5014236;28;20205;-81
2022/11/11 02:48:58;;;;;;;20.03;10.40;;;12.80;99.90;;;;;;5014242;28;20508;-81
2022/11/11 02:51:25;;;;;;;15.87;10.10;;;12.80;99.90;;;;;;4996936;28;20227;-83
2022/11/11 02:53:57;;;;;;;16.67;10.63;;;12.80;99.90;;;;;;5015114;28;20214;-82
2022/11/11 02:59:06;;;;;;;23.43;12.77;;;12.80;99.90;;;;;;5001396;28;20665;-80
2022/11/11 03:01:33;;;;;;;21.67;12.73;;;12.80;99.90;;;;;;5014087;28;20203;-82
2022/11/11 03:04:00;;;;;;;22.03;11.90;;;12.80;99.90;;;;;;5014161;28;20657;-82
2022/11/11 03:06:27;;;;;;;19.83;13.07;;;12.80;99.90;;;;;;5013784;28;20205;-81
2022/11/11 03:08:53;;;;;;;23.83;13.47;;;12.80;99.90;;;;;;5014934;28;20207;-82
2022/11/11 03:11:26;;;;;;;22.03;12.80;;;12.80;99.90;;;;;;5014302;28;20200;-82
2022/11/11 03:13:55;;;;;;;20.80;13.80;;;12.80;99.90;;;;;;5027492;28;20242;-82
2022/11/11 03:19:09;;;;;;;25.47;13.33;;;12.70;99.90;;;;;;5013584;28;20506;-81
2022/11/11 03:21:36;;;;;;;24.40;13.93;;;12.70;99.90;;;;;;5030845;28;20206;-82
2022/11/11 03:24:04;;;;;;;24.20;15.00;;;12.80;99.90;;;;;;5022866;28;20516;-83
2022/11/11 03:26:31;;;;;;;23.10;12.53;;;12.70;99.90;;;;;;5014223;28;20309;-82
2022/11/11 03:28:59;;;;;;;21.83;14.50;;;12.70;99.90;;;;;;5013991;28;20233;-82
2022/11/11 03:31:26;;;;;;;26.93;15.63;;;12.70;99.90;;;;;;5013710;28;20219;-82
2022/11/11 03:33:53;;;;;;;23.20;15.03;;;12.70;99.90;;;;;;5013562;28;20234;-80
2022/11/11 03:36:20;;;;;;;25.23;14.83;;;12.70;99.90;;;;;;5012945;28;20629;-80
2022/11/11 03:39:05;;;;;;;24.33;13.83;;;12.70;99.90;;;;;;5013651;28;20203;-81
2022/11/11 03:41:33;;;;;;;22.87;14.27;;;12.70;99.90;;;;;;5013804;28;20199;-83
2022/11/11 03:44:01;;;;;;;19.83;13.30;;;12.70;99.90;;;;;;5029815;28;20503;-82
2022/11/11 03:46:28;;;;;;;19.93;13.67;;;12.60;99.90;;;;;;5033021;28;20202;-82
2022/11/11 03:48:55;;;;;;;24.40;14.53;;;12.60;99.90;;;;;;5023222;28;20218;-81
2022/11/11 03:51:22;;;;;;;22.63;14.70;;;12.60;99.90;;;;;;5012646;28;20215;-81
2022/11/11 03:53:49;;;;;;;25.37;14.93;;;12.60;99.90;;;;;;5013037;28;20294;-79
2022/11/11 03:56:15;;;;;;;22.10;15.07;;;12.60;99.90;;;;;;5013351;28;20213;-80
2022/11/11 03:58:42;;;;;;;24.20;14.60;;;12.50;99.90;;;;;;5012293;28;20207;-82
2022/11/11 04:10:21;;;;;;;18.40;14.03;;;12.60;99.90;;;;;;5022494;28;20234;-83
2022/11/11 04:12:11;;;;;;;23.87;15.00;;;12.50;99.90;;;;;;5023990;28;20245;-79
2022/11/11 04:17:24;;;;;;;20.60;13.57;;;12.50;99.90;;;;;;5032909;28;20313;-79
2022/11/11 04:22:40;;;;;;;20.80;13.63;;;12.50;99.90;;;;;;5029988;28;20269;-80
2022/11/11 04:29:27;;;;;;;21.13;13.53;;;12.50;99.90;;;;;;5012454;28;20213;-82
2022/11/11 04:30:38;;;;;;;19.20;13.33;;;12.40;99.90;;;;;;5012712;28;20238;-81
2022/11/11 04:33:06;;;;;;;22.37;13.30;;;12.50;99.90;;;;;;5012076;28;20605;-80
2022/11/11 04:35:33;;;;;;;18.47;13.23;;;12.40;99.90;;;;;;5012198;28;20223;-79
2022/11/11 04:43:25;;;;;;;21.70;13.77;;;12.40;99.90;;;;;;5027202;28;20268;-81
2022/11/11 04:45:51;;;;;;;20.27;12.87;;;12.40;99.90;;;;;;5025819;28;20511;-79
2022/11/11 04:48:19;;;;;;;19.23;12.83;;;12.40;99.90;;;;;;5013221;28;20198;-80
2022/11/11 04:50:46;;;;;;;20.57;13.00;;;12.50;99.90;;;;;;5012500;28;20250;-82
2022/11/11 04:53:15;;;;;;;20.60;13.10;;;12.40;99.90;;;;;;5012803;28;20478;-79
2022/11/11 04:58:30;;;;;;;18.03;12.80;;;12.40;99.90;;;;;;5012286;28;20207;-80
2022/11/11 05:00:57;;;;;;;19.97;14.13;;;12.40;99.90;;;;;;5012026;28;20214;-80
2022/11/11 05:03:24;;;;;;;19.43;12.80;;;12.40;99.90;;;;;;5012593;28;20233;-80
2022/11/11 05:08:58;;;;;;;18.03;12.33;;;12.40;99.90;;;;;;5012044;28;20778;-80
2022/11/11 05:11:27;;;;;;;19.40;12.97;;;12.40;99.90;;;;;;5012551;28;20297;-81
2022/11/11 05:22:18;;;;;;;23.70;13.60;;;12.40;99.90;;;;;;5015875;28;20670;-78
2022/11/11 05:27:30;;;;;;;18.77;13.33;;;12.40;99.90;;;;;;5016403;28;20214;-78
2022/11/11 05:29:57;;;;;;;20.83;13.57;;;12.40;99.90;;;;;;5015400;28;20207;-79
2022/11/11 05:32:24;;;;;;;20.03;13.53;;;12.30;99.90;;;;;;5015902;28;20214;-80
2022/11/11 05:34:53;;;;;;;20.20;14.20;;;12.30;99.90;;;;;;5015763;28;20230;-80
2022/11/11 05:37:20;;;;;;;25.67;14.33;;;12.30;99.90;;;;;;5015142;28;20210;-79
2022/11/11 05:39:47;;;;;;;22.53;13.83;;;12.20;99.90;;;;;;5015699;28;20239;-81
2022/11/11 05:42:14;;;;;;;17.67;13.20;;;12.20;99.90;;;;;;5016172;28;20496;-80
2022/11/11 05:44:41;;;;;;;22.53;14.47;;;12.20;99.90;;;;;;5014814;28;20504;-81
2022/11/11 05:47:08;;;;;;;20.47;14.70;;;12.20;99.90;;;;;;5015334;28;20510;-82
2022/11/11 05:49:35;;;;;;;20.47;14.30;;;12.20;99.90;;;;;;5015678;28;20235;-80
2022/11/11 05:52:03;;;;;;;20.37;13.30;;;12.10;99.90;;;;;;5015460;28;20219;-81
2022/11/11 05:54:30;;;;;;;19.37;13.70;;;12.10;99.90;;;;;;5015270;28;20221;-80
2022/11/11 05:56:57;;;;;;;20.20;14.87;;;12.10;99.90;;;;;;5015847;28;20864;-81
2022/11/11 05:59:24;;;;;;;19.53;14.70;;;12.10;99.90;;;;;;5015399;28;20204;-83
2022/11/11 06:01:51;;;;;;;20.10;15.20;;;12.10;99.90;;;;;;5015645;28;20206;-81
2022/11/11 06:04:18;;;;;;;19.60;15.37;;;12.10;99.90;;;;;;5015368;28;20204;-82
2022/11/11 06:06:44;;;;;;;19.87;14.37;;;12.10;99.90;;;;;;5015152;28;20205;-80
2022/11/11 06:09:13;;;;;;;24.80;15.77;;;12.10;99.90;;;;;;5015651;28;20195;-80
2022/11/11 06:11:40;;;;;;;20.00;14.53;;;12.10;99.90;;;;;;5014717;28;20195;-79
2022/11/11 06:14:07;;;;;;;21.70;15.30;;;12.00;99.90;;;;;;5016004;28;20198;-77
2022/11/11 06:16:34;;;;;;;25.30;14.40;;;12.00;99.90;;;;;;5014832;28;20224;-81
2022/11/11 06:19:03;;;;;;;21.77;15.03;;;12.00;99.90;;;;;;5014763;28;20279;-81
2022/11/11 06:21:30;;;;;;;18.93;14.23;;;12.00;99.90;;;;;;5015085;28;20206;-80
2022/11/11 06:23:57;;;;;;;18.97;14.10;;;12.00;99.90;;;;;;5015225;28;20211;-80
2022/11/11 06:26:25;;;;;;;25.70;15.63;;;12.00;99.90;;;;;;5013189;28;20610;-80
2022/11/11 06:28:54;;;;;;;18.50;13.73;;;12.00;99.90;;;;;;5014693;28;20213;-80
2022/11/11 06:31:23;;;;;;;20.20;14.87;;;11.90;99.90;;;;;;5027843;28;20202;-79
2022/11/11 06:33:50;;;;;;;23.60;15.30;;;11.90;99.90;;;;;;5033883;28;20554;-81
2022/11/11 06:36:19;;;;;;;21.63;15.00;;;11.90;99.90;;;;;;5034430;28;20253;-79
2022/11/11 06:38:46;;;;;;;17.83;14.20;;;11.90;99.90;;;;;;5026057;28;20215;-81
2022/11/11 06:41:14;;;;;;;24.27;14.77;;;11.90;99.90;;;;;;5013944;28;20208;-80
2022/11/11 06:43:43;;;;;;;17.03;14.43;;;11.90;99.90;;;;;;5014598;28;20254;-79
2022/11/11 06:46:19;;;;;;;18.13;13.50;;;11.90;99.90;;;;;;5014283;28;20200;-80
2022/11/11 06:48:46;;;;;;;21.90;14.53;;;11.90;99.90;;;;;;5014838;28;20596;-80
2022/11/11 06:51:13;;;;;;;25.43;16.27;;;11.80;99.90;;;;;;5015418;28;20234;-81
2022/11/11 06:53:40;;;;;;;24.97;16.13;;;11.80;99.90;;;;;;5014021;28;20211;-79
2022/11/11 06:56:08;;;;;;;21.00;14.03;;;11.70;99.90;;;;;;5018997;28;20258;-79
2022/11/11 06:58:35;;;;;;;21.03;15.67;;;11.70;99.90;;;;;;5032570;28;20194;-80
2022/11/11 07:01:06;;;;;;;22.53;15.77;;;11.70;99.90;;;;;;5013706;28;20290;-79
2022/11/11 07:03:33;;;;;;;19.30;14.33;;;11.80;99.90;;;;;;5014347;28;20613;-78
2022/11/11 07:06:01;;;;;;;21.37;14.77;;;11.70;99.90;;;;;;5014584;28;20205;-79
2022/11/11 07:08:27;;;;;;;22.00;15.90;;;11.70;99.90;;;;;;5013878;28;20207;-80
2022/11/11 07:10:54;;;;;;;23.37;16.87;;;11.70;99.90;;;;;;5014184;28;20282;-79
2022/11/11 07:13:21;;;;;;;25.07;16.30;;;11.70;99.90;;;;;;5013637;28;20245;-79
2022/11/11 07:15:48;;;;;;;22.80;16.33;;;11.70;99.90;;;;;;5013202;28;20238;-80
2022/11/11 07:18:17;;;;;;;23.53;16.73;;;11.70;99.90;;;;;;5013989;28;20519;-80
2022/11/11 07:20:43;;;;;;;25.00;16.10;;;11.70;99.90;;;;;;5013967;28;20203;-80
2022/11/11 07:23:10;;;;;;;20.50;15.23;;;11.80;99.90;;;;;;5013173;28;20203;-80
2022/11/11 07:25:37;;;;;;;20.33;16.47;;;11.70;99.90;;;;;;5014184;28;20285;-81
2022/11/11 07:28:04;;;;;;;23.63;17.83;;;11.70;99.90;;;;;;5013537;28;20668;-83
2022/11/11 07:30:31;;;;;;;20.73;16.03;;;11.80;99.90;;;;;;5027636;28;20206;-81
2022/11/11 07:32:58;;;;;;;25.93;17.67;;;11.70;99.90;;;;;;5033531;28;20206;-79
2022/11/11 07:35:26;;;;;;;24.67;18.13;;;11.80;99.90;;;;;;5032220;28;20214;-80
2022/11/11 07:37:53;;;;;;;28.63;19.10;;;11.70;99.90;;;;;;5033191;28;20226;-80
2022/11/11 07:40:21;;;;;;;23.17;17.27;;;11.70;99.90;;;;;;5031958;28;20206;-81
2022/11/11 07:42:48;;;;;;;23.77;17.10;;;11.70;99.90;;;;;;5032435;28;20209;-81
2022/11/11 07:45:15;;;;;;;22.57;18.60;;;11.70;99.90;;;;;;5032980;28;20212;-81
2022/11/11 07:47:45;;;;;;;27.87;18.30;;;11.80;99.90;;;;;;5031224;28;20558;-80
2022/11/11 07:50:12;;;;;;;25.13;17.87;;;11.70;99.90;;;;;;5029133;28;20229;-81
2022/11/11 07:52:41;;;;;;;23.07;17.77;;;11.80;99.90;;;;;;5031562;28;20260;-80
2022/11/11 07:55:08;;;;;;;22.97;16.93;;;11.80;99.90;;;;;;5031858;28;20293;-80
2022/11/11 07:57:35;;;;;;;27.33;18.80;;;11.80;99.90;;;;;;5029348;28;20241;-79
2022/11/11 08:00:03;;;;;;;23.03;17.47;;;11.80;99.90;;;;;;5032476;28;20288;-80
2022/11/11 08:02:30;;;;;;;26.77;19.57;;;11.80;99.90;;;;;;5032069;28;20210;-80
2022/11/11 08:04:57;;;;;;;27.10;19.77;;;11.80;99.90;;;;;;5027009;28;20194;-80
2022/11/11 08:07:25;;;;;;;25.37;18.13;;;11.80;99.90;;;;;;5025025;28;20206;-79
2022/11/11 08:09:53;;;;;;;27.27;19.10;;;11.80;99.90;;;;;;5032028;28;20198;-82
2022/11/11 08:15:05;;;;;;;21.27;17.40;;;11.80;99.90;;;;;;5012498;28;20194;-79
2022/11/11 08:17:36;;;;;;;25.37;19.40;;;11.80;99.90;;;;;;5012594;28;20206;-81
2022/11/11 08:20:03;;;;;;;24.53;19.03;;;11.90;99.90;;;;;;5013180;28;20223;-81
2022/11/11 08:22:35;;;;;;;25.40;19.33;;;11.90;99.90;;;;;;5014276;28;20199;-82
2022/11/11 08:25:03;;;;;;;24.83;20.47;;;11.90;99.90;;;;;;5033053;28;20195;-80
2022/11/11 08:27:30;;;;;;;24.57;19.87;;;11.90;99.90;;;;;;5032830;28;20194;-80
2022/11/11 08:29:57;;;;;;;27.03;19.73;;;11.90;99.90;;;;;;5022013;28;20298;-80
2022/11/11 08:32:24;;;;;;;26.60;18.23;;;11.90;99.90;;;;;;5012818;28;20502;-80
2022/11/11 08:34:51;;;;;;;23.87;19.00;;;11.90;99.90;;;;;;5018520;28;20205;-82
2022/11/11 08:37:17;;;;;;;25.77;19.67;;;11.90;99.90;;;;;;5031771;28;20313;-81
2022/11/11 08:39:44;;;;;;;27.17;19.97;;;12.00;99.90;;;;;;5033021;28;20191;-81
2022/11/11 08:42:12;;;;;;;25.97;20.40;;;11.90;99.90;;;;;;5016591;28;20217;-81
2022/11/11 08:44:39;;;;;;;25.50;19.87;;;12.00;99.90;;;;;;5013124;28;20290;-82
2022/11/11 08:47:06;;;;;;;19.97;17.17;;;12.00;99.90;;;;;;5012905;28;20603;-78
2022/11/11 08:49:33;;;;;;;28.20;19.33;;;11.90;99.90;;;;;;5031377;28;20213;-81
2022/11/11 08:52:00;;;;;;;26.57;19.33;;;12.00;99.90;;;;;;5030800;28;20229;-84
2022/11/11 08:54:27;;;;;;;27.17;18.10;;;12.00;99.90;;;;;;5012090;28;20214;-80
2022/11/11 08:56:54;;;;;;;26.23;20.37;;;12.00;99.90;;;;;;5012061;28;20326;-81
2022/11/11 08:59:22;;;;;;;22.60;17.90;;;12.00;99.90;;;;;;5012733;28;20293;-80
2022/11/11 09:01:49;;;;;;;27.20;19.50;;;12.10;99.90;;;;;;5011452;28;20272;-80
2022/11/11 09:04:16;;;;;;;25.37;18.33;;;12.10;99.90;;;;;;5012614;28;20199;-78
2022/11/11 09:06:44;;;;;;;26.00;17.87;;;12.20;99.90;;;;;;5011989;28;20285;-79
2022/11/11 09:09:11;;;;;;;24.30;17.80;;;12.20;99.90;;;;;;5022948;28;20206;-78
2022/11/11 09:11:38;;;;;;;27.73;19.33;;;12.10;99.90;;;;;;5031773;28;20301;-79
2022/11/11 09:14:05;;;;;;;24.60;17.53;;;12.10;99.90;;;;;;5030993;28;20242;-78
2022/11/11 09:16:33;;;;;;;25.13;19.00;;;12.20;99.90;;;;;;5031791;28;20226;-79
2022/11/11 09:19:00;;;;;;;25.10;19.30;;;12.20;99.90;;;;;;5014859;28;20221;-81
2022/11/11 09:21:27;;;;;;;24.57;18.53;;;12.20;99.90;;;;;;5011971;28;20285;-77
2022/11/11 09:23:53;;;;;;;22.73;18.53;;;12.30;99.90;;;;;;5012088;28;20634;-80
2022/11/11 09:26:20;;;;;;;23.40;17.43;;;12.30;99.90;;;;;;5019164;28;20211;-81
2022/11/11 09:28:47;;;;;;;26.77;19.53;;;12.30;99.90;;;;;;5019911;28;20226;-83
2022/11/11 09:31:14;;;;;;;26.20;18.80;;;12.30;99.90;;;;;;5027862;28;20199;-78
2022/11/11 09:33:42;;;;;;;27.27;19.07;;;12.30;99.90;;;;;;5026992;28;20202;-80
2022/11/11 09:36:09;;;;;;;23.93;18.23;;;12.30;99.90;;;;;;5011074;28;20322;-80
2022/11/11 09:38:36;;;;;;;28.00;18.83;;;12.30;99.90;;;;;;5018781;28;20206;-84
2022/11/11 09:41:15;;;;;;;23.07;18.73;;;12.30;99.90;;;;;;5031413;28;20213;-82
2022/11/11 09:43:51;;;;;;;24.70;18.43;;;12.30;99.90;;;;;;5033894;28;20718;-80
2022/11/11 09:46:29;;;;;;;25.90;18.07;;;12.30;99.90;;;;;;5047724;28;20515;-82
2022/11/11 09:49:37;;;;;;;25.57;17.97;;;12.30;99.90;;;;;;5030818;28;20214;-81
2022/11/11 09:52:09;;;;;;;21.37;17.30;;;12.30;99.90;;;;;;5012172;28;20238;-81
2022/11/11 09:54:43;;;;;;;28.83;18.50;;;12.30;99.90;;;;;;5016391;28;20202;-82
2022/11/11 09:57:17;;;;;;;24.53;17.80;;;12.40;99.90;;;;;;5011527;28;20238;-80
2022/11/11 09:59:49;;;;;;;23.17;18.80;;;12.40;99.90;;;;;;5020979;28;20237;-79
2022/11/11 10:02:26;;;;;;;22.57;16.73;;;12.40;99.90;;;;;;5015435;28;20278;-78
2022/11/11 10:05:00;;;;;;;20.93;16.37;;;12.40;99.90;;;;;;5015138;28;20195;-81
2022/11/11 10:07:36;;;;;;;28.80;17.40;;;12.40;99.90;;;;;;5016404;28;20306;-85
2022/11/11 10:10:11;;;;;;;23.93;17.67;;;12.40;99.90;;;;;;5034394;28;20202;-82
2022/11/11 10:12:44;;;;;;;22.90;17.43;;;12.50;99.90;;;;;;5034427;28;20230;-81
2022/11/11 10:15:15;;;;;;;23.87;16.63;;;12.50;99.90;;;;;;5017514;28;20203;-81
2022/11/11 10:17:51;;;;;;;17.13;15.30;;;12.60;99.90;;;;;;5018609;28;20210;-82
2022/11/11 10:20:25;;;;;;;22.90;15.83;;;12.60;99.90;;;;;;5033449;28;20369;-82
2022/11/11 10:23:00;;;;;;;24.07;15.83;;;12.60;99.90;;;;;;5034421;28;20195;-82
2022/11/11 10:25:27;;;;;;;22.43;16.17;;;12.60;99.90;;;;;;5033989;28;20198;-79
2022/11/11 10:27:58;;;;;;;18.60;14.60;;;12.70;99.90;;;;;;5039430;28;20612;-79
2022/11/11 10:30:27;;;;;;;20.07;13.87;;;12.70;99.90;;;;;;5040629;28;20536;-79
2022/11/11 10:32:59;;;;;;;21.43;15.07;;;12.70;99.90;;;;;;5032450;28;20203;-81
2022/11/11 10:35:29;;;;;;;18.47;15.13;;;12.80;99.90;;;;;;5017974;28;20484;-78
2022/11/11 10:38:06;;;;;;;18.43;14.50;;;12.80;99.90;;;;;;5014555;28;20329;-78
2022/11/11 10:40:39;;;;;;;23.07;15.63;;;12.90;99.90;;;;;;5014591;28;20217;-80
2022/11/11 10:43:15;;;;;;;20.27;14.33;;;12.90;99.90;;;;;;5014480;28;20203;-80
2022/11/11 10:45:50;;;;;;;21.77;14.67;;;13.00;99.90;;;;;;5013841;28;20207;-80
2022/11/11 10:48:21;;;;;;;24.13;14.93;;;13.10;99.90;;;;;;5014390;28;20191;-79
2022/11/11 10:50:53;;;;;;;17.87;14.80;;;13.20;99.90;;;;;;5014415;28;20223;-79
2022/11/11 10:53:29;;;;;;;18.23;13.17;;;13.30;99.90;;;;;;5013363;28;20207;-79
2022/11/11 10:56:02;;;;;;;19.77;14.43;;;13.40;99.90;;;;;;5013588;28;20206;-84
2022/11/11 10:58:37;;;;;;;23.80;16.03;;;13.40;99.90;;;;;;5014201;28;20199;-78
2022/11/11 11:01:06;;;;;;;22.30;15.50;;;13.50;99.90;;;;;;5029717;28;20288;-78
2022/11/11 11:03:36;;;;;;;23.97;15.20;;;13.50;99.90;;;;;;5033774;28;20199;-83
2022/11/11 11:06:10;;;;;;;20.43;13.90;;;13.50;99.90;;;;;;5028678;28;20211;-79
2022/11/11 11:08:43;;;;;;;22.33;15.40;;;13.40;99.90;;;;;;5013865;28;20583;-80
2022/11/11 11:11:16;;;;;;;18.63;14.73;;;13.40;99.90;;;;;;5014416;28;20235;-81
2022/11/11 11:13:48;;;;;;;15.60;13.23;;;13.30;99.90;;;;;;5014627;28;20250;-80
2022/11/11 11:16:18;;;;;;;18.00;13.50;;;13.30;99.90;;;;;;5021806;28;20240;-80
2022/11/11 11:19:05;;;;;;;18.57;14.03;;;13.30;99.90;;;;;;5013856;28;20198;-78
2022/11/11 11:21:49;;;;;;;19.83;14.43;;;13.30;99.90;;;;;;5013174;28;20206;-79
2022/11/11 11:24:20;;;;;;;19.27;13.53;;;13.30;99.90;;;;;;5015660;28;20191;-78
2022/11/11 11:26:50;;;;;;;18.03;13.47;;;13.40;99.90;;;;;;5034098;28;20237;-82
2022/11/11 11:29:29;;;;;;;15.83;12.07;;;13.50;99.90;;;;;;5034235;28;20560;-78
2022/11/11 11:32:10;;;;;;;19.17;13.40;;;13.60;99.90;;;;;;5034122;28;20202;-78
2022/11/11 11:34:55;;;;;;;21.87;13.30;;;13.70;99.90;;;;;;5031980;28;20206;-78
2022/11/11 11:37:25;;;;;;;17.27;12.30;;;13.70;99.90;;;;;;5024614;28;20520;-79
2022/11/11 11:42:42;;;;;;;15.03;12.23;;;13.70;99.90;;;;;;5048993;22;20242;-78
2022/11/11 11:45:21;;;;;;;17.23;12.83;;;13.70;99.90;;;;;;5016820;28;20203;-81
2022/11/11 11:47:57;;;;;;;17.07;12.00;;;13.70;99.90;;;;;;5033284;28;20560;-77
2022/11/11 11:50:39;;;;;;;18.83;10.97;;;13.70;99.90;;;;;;5027302;28;20301;-77
2022/11/11 11:53:22;;;;;;;20.20;13.47;;;13.70;99.90;;;;;;5014462;28;20195;-78
2022/11/11 11:55:55;;;;;;;17.93;13.37;;;13.70;99.90;;;;;;5013653;28;20563;-79
2022/11/11 11:58:33;;;;;;;16.80;12.97;;;13.60;99.90;;;;;;5013934;28;20234;-80
2022/11/11 12:01:05;;;;;;;18.50;12.97;;;13.60;99.90;;;;;;5028118;28;20251;-80
2022/11/11 12:04:15;;;;;;;17.37;13.10;;;13.60;99.90;;;;;;5032352;28;20195;-82
2022/11/11 12:06:54;;;;;;;19.30;14.10;;;13.70;99.90;;;;;;4974579;28;20199;-81
2022/11/11 12:09:34;;;;;;;15.10;12.47;;;13.60;99.90;;;;;;5029002;28;20670;-81
2022/11/11 12:12:09;;;;;;;18.33;12.67;;;13.60;99.90;;;;;;5030560;28;20195;-80
2022/11/11 12:14:51;;;;;;;16.27;11.70;;;13.50;99.90;;;;;;5030830;28;20959;-80
2022/11/11 12:17:30;;;;;;;14.33;11.47;;;13.50;99.90;;;;;;5031346;28;20314;-80
2022/11/11 12:20:08;;;;;;;19.23;12.40;;;13.50;99.90;;;;;;5030663;28;20187;-79
2022/11/11 12:22:50;;;;;;;15.53;12.37;;;13.60;99.90;;;;;;5029903;28;20209;-79
2022/11/11 12:25:27;;;;;;;19.73;12.43;;;13.60;99.90;;;;;;5021474;28;20210;-80
2022/11/11 12:28:02;;;;;;;17.50;11.83;;;13.60;99.90;;;;;;5033292;28;20238;-78
2022/11/11 12:30:30;;;;;;;23.63;14.27;;;13.60;99.90;;;;;;5035850;28;20738;-79
2022/11/11 12:33:35;;;;;;;16.37;14.67;;;13.60;99.90;;;;;;5030739;28;20317;-79
2022/11/11 12:36:11;;;;;;;13.37;11.53;;;13.60;99.90;;;;;;5015425;28;20280;-78
2022/11/11 12:38:54;;;;;;;19.63;12.87;;;13.60;99.90;;;;;;5028075;28;20202;-80
2022/11/11 12:41:27;;;;;;;14.53;11.27;;;13.70;99.90;;;;;;5011499;28;20237;-80
2022/11/11 12:44:04;;;;;;;17.33;11.27;;;13.70;99.90;;;;;;5027549;28;20213;-81
2022/11/11 12:46:51;;;;;;;18.50;12.10;;;13.70;99.90;;;;;;5030760;28;20560;-80
2022/11/11 12:49:33;;;;;;;15.60;11.20;;;13.70;99.90;;;;;;5031024;28;20207;-79
2022/11/11 12:52:11;;;;;;;15.67;12.33;;;13.60;99.90;;;;;;5010586;28;20223;-81
2022/11/11 12:54:48;;;;;;;19.83;11.93;;;13.60;99.90;;;;;;5011593;28;20222;-79
2022/11/11 12:57:24;;;;;;;15.83;12.73;;;13.50;99.90;;;;;;5011787;28;20223;-79
2022/11/11 13:00:06;;;;;;;16.17;11.57;;;13.50;99.90;;;;;;5011197;28;20215;-79
2022/11/11 13:02:51;;;;;;;13.77;11.27;;;13.50;99.90;;;;;;5029490;28;20210;-81
2022/11/11 13:05:22;;;;;;;17.40;12.43;;;13.60;99.90;;;;;;5031365;28;20210;-80
2022/11/11 13:08:16;;;;;;;18.07;12.20;;;13.60;99.90;;;;;;5030319;28;20209;-79
2022/11/11 13:10:49;;;;;;;19.50;13.90;;;13.50;99.90;;;;;;4977976;28;20215;-79
2022/11/11 13:13:45;;;;;;;22.70;14.90;;;13.50;99.90;;;;;;5012882;28;20579;-79
2022/11/11 13:16:12;;;;;;;20.10;13.77;;;13.50;99.90;;;;;;5010601;28;20333;-80
2022/11/11 13:18:47;;;;;;;15.77;13.30;;;13.50;99.90;;;;;;5011256;28;20253;-80
2022/11/11 13:21:17;;;;;;;21.40;15.67;;;13.50;99.90;;;;;;5023149;28;20213;-80
2022/11/11 13:23:44;;;;;;;22.52;15.48;;;13.60;99.90;;;;;;5027650;28;20202;-81
2022/11/11 13:26:24;;;;;;;19.83;15.63;;;13.60;99.90;;;;;;5012427;28;20204;-79
2022/11/11 13:29:25;;;;;;;21.67;17.03;;;13.60;99.90;;;;;;5012063;28;20202;-80
2022/11/11 13:31:54;;;;;;;19.77;14.50;;;13.60;99.90;;;;;;5026617;28;20300;-79
2022/11/11 13:34:21;;;;;;;19.43;13.63;;;13.60;99.90;;;;;;5030314;28;20238;-79
2022/11/11 13:36:51;;;;;;;16.47;13.73;;;13.60;99.90;;;;;;5035496;28;20226;-81
2022/11/11 13:39:26;;;;;;;18.40;12.67;;;13.60;99.90;;;;;;5026361;28;20310;-79
2022/11/11 13:41:56;;;;;;;14.73;12.10;;;13.60;99.90;;;;;;5015388;28;20254;-80
2022/11/11 13:44:28;;;;;;;17.50;12.30;;;13.60;99.90;;;;;;5018140;28;20206;-80
2022/11/11 13:47:03;;;;;;;16.00;12.17;;;13.60;99.90;;;;;;5034963;28;20210;-80
2022/11/11 13:49:33;;;;;;;16.47;12.70;;;13.60;99.90;;;;;;5035002;28;20202;-81
2022/11/11 13:52:02;;;;;;;15.83;12.30;;;13.60;99.90;;;;;;5022911;28;20257;-78
2022/11/11 13:54:33;;;;;;;15.35;12.77;;;13.60;99.90;;;;;;5015516;28;20206;-80
2022/11/11 13:57:06;;;;;;;13.63;11.03;;;13.70;99.90;;;;;;5015455;28;20246;-81
2022/11/11 13:59:39;;;;;;;15.67;12.20;;;13.60;99.90;;;;;;5015955;28;20203;-81
2022/11/11 14:02:25;;;;;;;15.90;12.00;;;13.70;99.90;;;;;;5015885;28;20196;-80